sensor_id;sensor_type;location;lat;lon;timestamp;temperature;humidity
20091;DHT22;10205;49.678;6.560;2023-07-09T00:00:47;33.50;36.10
20091;DHT22;10205;49.678;6.560;2023-07-09T00:03:14;33.40;36.10
20091;DHT22;10205;49.678;6.560;2023-07-09T00:05:42;33.30;36.10
20091;DHT22;10205;49.678;6.560;2023-07-09T00:08:24;33.30;36.20
20091;DHT22;10205;49.678;6.560;2023-07-09T00:10:54;33.20;36.40
20091;DHT22;10205;49.678;6.560;2023-07-09T00:13:22;33.20;36.30
20091;DHT22;10205;49.678;6.560;2023-07-09T00:15:51;33.10;36.40
20091;DHT22;10205;49.678;6.560;2023-07-09T00:18:19;33.00;36.40
20091;DHT22;10205;49.678;6.560;2023-07-09T00:20:46;33.00;36.50
20091;DHT22;10205;49.678;6.560;2023-07-09T00:23:14;32.90;36.50
20091;DHT22;10205;49.678;6.560;2023-07-09T00:25:45;32.90;36.60
20091;DHT22;10205;49.678;6.560;2023-07-09T00:28:14;32.80;36.70
20091;DHT22;10205;49.678;6.560;2023-07-09T00:30:44;32.70;36.80
20091;DHT22;10205;49.678;6.560;2023-07-09T00:33:12;32.70;36.90
20091;DHT22;10205;49.678;6.560;2023-07-09T00:35:41;32.60;36.90
20091;DHT22;10205;49.678;6.560;2023-07-09T00:38:20;32.50;36.90
20091;DHT22;10205;49.678;6.560;2023-07-09T00:40:59;32.50;37.00
20091;DHT22;10205;49.678;6.560;2023-07-09T00:43:30;32.40;37.10
20091;DHT22;10205;49.678;6.560;2023-07-09T00:49:31;32.30;37.10
20091;DHT22;10205;49.678;6.560;2023-07-09T00:52:05;32.20;37.20
20091;DHT22;10205;49.678;6.560;2023-07-09T00:54:46;32.20;37.30
20091;DHT22;10205;49.678;6.560;2023-07-09T00:57:16;32.10;37.30
20091;DHT22;10205;49.678;6.560;2023-07-09T00:59:49;32.00;37.40
20091;DHT22;10205;49.678;6.560;2023-07-09T01:02:20;32.00;37.50
20091;DHT22;10205;49.678;6.560;2023-07-09T01:04:50;31.90;37.50
20091;DHT22;10205;49.678;6.560;2023-07-09T01:07:18;31.90;37.60
20091;DHT22;10205;49.678;6.560;2023-07-09T01:09:48;31.80;37.70
20091;DHT22;10205;49.678;6.560;2023-07-09T01:12:19;31.70;37.80
20091;DHT22;10205;49.678;6.560;2023-07-09T01:14:49;31.70;37.80
20091;DHT22;10205;49.678;6.560;2023-07-09T01:17:20;31.60;37.80
20091;DHT22;10205;49.678;6.560;2023-07-09T01:19:50;31.60;37.90
20091;DHT22;10205;49.678;6.560;2023-07-09T01:22:20;31.50;37.90
20091;DHT22;10205;49.678;6.560;2023-07-09T01:24:52;31.50;38.00
20091;DHT22;10205;49.678;6.560;2023-07-09T01:27:24;31.40;38.10
20091;DHT22;10205;49.678;6.560;2023-07-09T01:29:53;31.30;38.10
20091;DHT22;10205;49.678;6.560;2023-07-09T01:32:23;31.30;38.10
20091;DHT22;10205;49.678;6.560;2023-07-09T01:34:52;31.20;38.20
20091;DHT22;10205;49.678;6.560;2023-07-09T01:37:26;31.20;38.30
20091;DHT22;10205;49.678;6.560;2023-07-09T01:39:54;31.20;38.50
20091;DHT22;10205;49.678;6.560;2023-07-09T01:42:24;31.10;38.40
20091;DHT22;10205;49.678;6.560;2023-07-09T01:44:55;31.00;38.50
20091;DHT22;10205;49.678;6.560;2023-07-09T01:47:23;31.00;38.50
20091;DHT22;10205;49.678;6.560;2023-07-09T01:49:51;30.90;38.50
20091;DHT22;10205;49.678;6.560;2023-07-09T01:52:25;30.90;38.60
20091;DHT22;10205;49.678;6.560;2023-07-09T01:54:54;30.80;38.70
20091;DHT22;10205;49.678;6.560;2023-07-09T01:57:25;30.70;38.70
20091;DHT22;10205;49.678;6.560;2023-07-09T02:00:01;30.70;38.90
20091;DHT22;10205;49.678;6.560;2023-07-09T02:02:32;30.70;38.90
20091;DHT22;10205;49.678;6.560;2023-07-09T02:04:59;30.60;38.90
20091;DHT22;10205;49.678;6.560;2023-07-09T02:07:28;30.60;39.00
20091;DHT22;10205;49.678;6.560;2023-07-09T02:09:55;30.50;39.10
20091;DHT22;10205;49.678;6.560;2023-07-09T02:12:22;30.50;39.00
20091;DHT22;10205;49.678;6.560;2023-07-09T02:14:50;30.40;39.10
20091;DHT22;10205;49.678;6.560;2023-07-09T02:17:17;30.40;39.30
20091;DHT22;10205;49.678;6.560;2023-07-09T02:19:45;30.30;39.20
20091;DHT22;10205;49.678;6.560;2023-07-09T02:22:12;30.30;39.30
20091;DHT22;10205;49.678;6.560;2023-07-09T02:24:41;30.30;39.40
20091;DHT22;10205;49.678;6.560;2023-07-09T02:27:10;30.20;39.50
20091;DHT22;10205;49.678;6.560;2023-07-09T02:29:38;30.10;39.50
20091;DHT22;10205;49.678;6.560;2023-07-09T02:32:08;30.10;39.50
20091;DHT22;10205;49.678;6.560;2023-07-09T02:34:36;30.00;39.50
20091;DHT22;10205;49.678;6.560;2023-07-09T02:37:06;30.00;39.60
20091;DHT22;10205;49.678;6.560;2023-07-09T02:39:33;30.00;39.70
20091;DHT22;10205;49.678;6.560;2023-07-09T02:42:02;29.90;39.80
20091;DHT22;10205;49.678;6.560;2023-07-09T02:44:30;29.80;39.90
20091;DHT22;10205;49.678;6.560;2023-07-09T02:46:57;29.80;40.00
20091;DHT22;10205;49.678;6.560;2023-07-09T02:49:25;29.70;39.80
20091;DHT22;10205;49.678;6.560;2023-07-09T02:51:52;29.70;40.00
20091;DHT22;10205;49.678;6.560;2023-07-09T02:54:19;29.60;40.00
20091;DHT22;10205;49.678;6.560;2023-07-09T02:56:46;29.60;40.10
20091;DHT22;10205;49.678;6.560;2023-07-09T02:59:15;29.50;40.10
20091;DHT22;10205;49.678;6.560;2023-07-09T03:01:42;29.50;40.20
20091;DHT22;10205;49.678;6.560;2023-07-09T03:04:09;29.50;40.30
20091;DHT22;10205;49.678;6.560;2023-07-09T03:06:37;29.40;40.30
20091;DHT22;10205;49.678;6.560;2023-07-09T03:09:05;29.40;40.30
20091;DHT22;10205;49.678;6.560;2023-07-09T03:11:34;29.30;40.40
20091;DHT22;10205;49.678;6.560;2023-07-09T03:14:02;29.30;40.60
20091;DHT22;10205;49.678;6.560;2023-07-09T03:16:34;29.20;40.50
20091;DHT22;10205;49.678;6.560;2023-07-09T03:19:02;29.10;40.70
20091;DHT22;10205;49.678;6.560;2023-07-09T03:21:31;29.10;40.60
20091;DHT22;10205;49.678;6.560;2023-07-09T03:23:58;29.10;40.80
20091;DHT22;10205;49.678;6.560;2023-07-09T03:26:26;29.10;40.70
20091;DHT22;10205;49.678;6.560;2023-07-09T03:28:54;29.00;40.80
20091;DHT22;10205;49.678;6.560;2023-07-09T03:31:22;29.00;40.90
20091;DHT22;10205;49.678;6.560;2023-07-09T03:33:51;28.90;40.90
20091;DHT22;10205;49.678;6.560;2023-07-09T03:36:19;28.80;41.00
20091;DHT22;10205;49.678;6.560;2023-07-09T03:38:47;28.80;40.90
20091;DHT22;10205;49.678;6.560;2023-07-09T03:41:14;28.80;41.00
20091;DHT22;10205;49.678;6.560;2023-07-09T03:43:42;28.70;41.10
20091;DHT22;10205;49.678;6.560;2023-07-09T03:46:10;28.70;41.10
20091;DHT22;10205;49.678;6.560;2023-07-09T03:48:38;28.60;41.20
20091;DHT22;10205;49.678;6.560;2023-07-09T03:51:07;28.60;41.30
20091;DHT22;10205;49.678;6.560;2023-07-09T03:53:34;28.50;41.50
20091;DHT22;10205;49.678;6.560;2023-07-09T03:56:02;28.50;41.40
20091;DHT22;10205;49.678;6.560;2023-07-09T03:58:29;28.50;41.50
20091;DHT22;10205;49.678;6.560;2023-07-09T04:00:56;28.40;41.50
20091;DHT22;10205;49.678;6.560;2023-07-09T04:03:23;28.40;41.60
20091;DHT22;10205;49.678;6.560;2023-07-09T04:05:51;28.30;41.60
20091;DHT22;10205;49.678;6.560;2023-07-09T04:08:20;28.30;41.70
20091;DHT22;10205;49.678;6.560;2023-07-09T04:10:47;28.20;41.60
20091;DHT22;10205;49.678;6.560;2023-07-09T04:13:14;28.20;41.70
20091;DHT22;10205;49.678;6.560;2023-07-09T04:15:41;28.20;41.80
20091;DHT22;10205;49.678;6.560;2023-07-09T04:18:08;28.10;41.80
20091;DHT22;10205;49.678;6.560;2023-07-09T04:20:35;28.10;41.90
20091;DHT22;10205;49.678;6.560;2023-07-09T04:23:03;28.00;42.00
20091;DHT22;10205;49.678;6.560;2023-07-09T04:25:31;28.00;42.00
20091;DHT22;10205;49.678;6.560;2023-07-09T04:27:59;28.00;42.10
20091;DHT22;10205;49.678;6.560;2023-07-09T04:30:26;27.90;42.10
20091;DHT22;10205;49.678;6.560;2023-07-09T04:32:53;27.90;42.20
20091;DHT22;10205;49.678;6.560;2023-07-09T04:35:20;27.90;42.20
20091;DHT22;10205;49.678;6.560;2023-07-09T04:37:47;27.80;42.30
20091;DHT22;10205;49.678;6.560;2023-07-09T04:40:17;27.80;42.50
20091;DHT22;10205;49.678;6.560;2023-07-09T04:42:46;27.70;42.40
20091;DHT22;10205;49.678;6.560;2023-07-09T04:45:14;27.70;42.70
20091;DHT22;10205;49.678;6.560;2023-07-09T04:47:42;27.70;42.70
20091;DHT22;10205;49.678;6.560;2023-07-09T04:50:09;27.60;42.70
20091;DHT22;10205;49.678;6.560;2023-07-09T04:52:39;27.60;42.60
20091;DHT22;10205;49.678;6.560;2023-07-09T04:55:06;27.50;42.70
20091;DHT22;10205;49.678;6.560;2023-07-09T04:57:34;27.50;42.80
20091;DHT22;10205;49.678;6.560;2023-07-09T05:00:04;27.50;42.80
20091;DHT22;10205;49.678;6.560;2023-07-09T05:02:34;27.50;43.00
20091;DHT22;10205;49.678;6.560;2023-07-09T05:05:01;27.40;43.00
20091;DHT22;10205;49.678;6.560;2023-07-09T05:07:29;27.40;43.00
20091;DHT22;10205;49.678;6.560;2023-07-09T05:09:58;27.40;43.00
20091;DHT22;10205;49.678;6.560;2023-07-09T05:12:26;27.30;43.10
20091;DHT22;10205;49.678;6.560;2023-07-09T05:14:54;27.30;43.10
20091;DHT22;10205;49.678;6.560;2023-07-09T05:17:24;27.30;43.80
20091;DHT22;10205;49.678;6.560;2023-07-09T05:19:52;27.20;43.30
20091;DHT22;10205;49.678;6.560;2023-07-09T05:22:19;27.20;43.30
20091;DHT22;10205;49.678;6.560;2023-07-09T05:24:47;27.20;43.40
20091;DHT22;10205;49.678;6.560;2023-07-09T05:27:14;27.10;43.40
20091;DHT22;10205;49.678;6.560;2023-07-09T05:29:41;27.10;43.40
20091;DHT22;10205;49.678;6.560;2023-07-09T05:32:08;27.10;43.50
20091;DHT22;10205;49.678;6.560;2023-07-09T05:34:37;27.00;43.50
20091;DHT22;10205;49.678;6.560;2023-07-09T05:37:04;27.00;43.70
20091;DHT22;10205;49.678;6.560;2023-07-09T05:39:32;27.00;43.70
20091;DHT22;10205;49.678;6.560;2023-07-09T05:41:59;27.00;43.80
20091;DHT22;10205;49.678;6.560;2023-07-09T05:44:26;26.90;43.70
20091;DHT22;10205;49.678;6.560;2023-07-09T05:46:53;26.90;43.80
20091;DHT22;10205;49.678;6.560;2023-07-09T05:49:21;26.90;43.90
20091;DHT22;10205;49.678;6.560;2023-07-09T05:51:49;26.90;43.90
20091;DHT22;10205;49.678;6.560;2023-07-09T05:54:17;26.90;44.10
20091;DHT22;10205;49.678;6.560;2023-07-09T05:56:45;26.90;44.10
20091;DHT22;10205;49.678;6.560;2023-07-09T05:59:15;26.80;44.10
20091;DHT22;10205;49.678;6.560;2023-07-09T06:01:42;26.80;44.20
20091;DHT22;10205;49.678;6.560;2023-07-09T06:04:09;26.80;44.20
20091;DHT22;10205;49.678;6.560;2023-07-09T06:06:37;26.80;44.40
20091;DHT22;10205;49.678;6.560;2023-07-09T06:09:07;26.80;44.40
20091;DHT22;10205;49.678;6.560;2023-07-09T06:11:34;26.80;44.50
20091;DHT22;10205;49.678;6.560;2023-07-09T06:14:01;26.80;44.50
20091;DHT22;10205;49.678;6.560;2023-07-09T06:16:29;26.80;44.60
20091;DHT22;10205;49.678;6.560;2023-07-09T06:18:56;26.80;44.70
20091;DHT22;10205;49.678;6.560;2023-07-09T06:21:24;26.80;44.80
20091;DHT22;10205;49.678;6.560;2023-07-09T06:23:51;26.80;44.80
20091;DHT22;10205;49.678;6.560;2023-07-09T06:26:19;26.80;44.90
20091;DHT22;10205;49.678;6.560;2023-07-09T06:28:46;26.80;45.00
20091;DHT22;10205;49.678;6.560;2023-07-09T06:31:14;26.80;45.20
20091;DHT22;10205;49.678;6.560;2023-07-09T06:33:41;26.80;45.10
20091;DHT22;10205;49.678;6.560;2023-07-09T06:36:08;26.80;45.20
20091;DHT22;10205;49.678;6.560;2023-07-09T06:38:36;26.90;45.50
20091;DHT22;10205;49.678;6.560;2023-07-09T06:41:03;26.90;45.40
20091;DHT22;10205;49.678;6.560;2023-07-09T06:43:31;26.90;45.40
20091;DHT22;10205;49.678;6.560;2023-07-09T06:45:59;26.90;45.40
20091;DHT22;10205;49.678;6.560;2023-07-09T06:48:28;26.90;45.40
20091;DHT22;10205;49.678;6.560;2023-07-09T06:50:56;26.90;45.40
20091;DHT22;10205;49.678;6.560;2023-07-09T06:53:25;27.00;45.50
20091;DHT22;10205;49.678;6.560;2023-07-09T06:55:53;27.00;45.50
20091;DHT22;10205;49.678;6.560;2023-07-09T06:58:25;27.00;45.50
20091;DHT22;10205;49.678;6.560;2023-07-09T07:00:54;27.00;45.60
20091;DHT22;10205;49.678;6.560;2023-07-09T07:03:22;27.10;45.80
20091;DHT22;10205;49.678;6.560;2023-07-09T07:05:53;27.10;45.90
20091;DHT22;10205;49.678;6.560;2023-07-09T07:08:21;27.20;46.10
20091;DHT22;10205;49.678;6.560;2023-07-09T07:10:50;27.20;45.80
20091;DHT22;10205;49.678;6.560;2023-07-09T07:13:27;27.30;45.70
20091;DHT22;10205;49.678;6.560;2023-07-09T07:15:56;27.30;45.70
20091;DHT22;10205;49.678;6.560;2023-07-09T07:18:23;27.40;46.00
20091;DHT22;10205;49.678;6.560;2023-07-09T07:20:51;27.40;46.20
20091;DHT22;10205;49.678;6.560;2023-07-09T07:23:18;27.50;45.90
20091;DHT22;10205;49.678;6.560;2023-07-09T07:25:46;27.50;46.40
20091;DHT22;10205;49.678;6.560;2023-07-09T07:28:14;27.50;46.20
20091;DHT22;10205;49.678;6.560;2023-07-09T07:30:42;27.60;46.20
20091;DHT22;10205;49.678;6.560;2023-07-09T07:33:13;27.70;46.00
20091;DHT22;10205;49.678;6.560;2023-07-09T07:35:41;27.70;46.30
20091;DHT22;10205;49.678;6.560;2023-07-09T07:38:08;27.80;46.10
20091;DHT22;10205;49.678;6.560;2023-07-09T07:40:35;27.80;46.40
20091;DHT22;10205;49.678;6.560;2023-07-09T07:43:03;27.90;46.20
20091;DHT22;10205;49.678;6.560;2023-07-09T07:45:30;28.00;46.00
20091;DHT22;10205;49.678;6.560;2023-07-09T07:47:57;28.00;46.00
20091;DHT22;10205;49.678;6.560;2023-07-09T07:50:28;28.10;45.90
20091;DHT22;10205;49.678;6.560;2023-07-09T07:52:55;28.20;45.80
20091;DHT22;10205;49.678;6.560;2023-07-09T07:55:22;28.30;46.00
20091;DHT22;10205;49.678;6.560;2023-07-09T07:57:49;28.30;45.90
20091;DHT22;10205;49.678;6.560;2023-07-09T08:00:17;28.40;46.30
20091;DHT22;10205;49.678;6.560;2023-07-09T08:02:45;28.50;46.10
20091;DHT22;10205;49.678;6.560;2023-07-09T08:05:13;28.60;45.70
20091;DHT22;10205;49.678;6.560;2023-07-09T08:07:41;28.70;46.10
20091;DHT22;10205;49.678;6.560;2023-07-09T08:10:09;28.70;46.30
20091;DHT22;10205;49.678;6.560;2023-07-09T08:12:37;28.80;46.10
20091;DHT22;10205;49.678;6.560;2023-07-09T08:15:06;28.90;45.60
20091;DHT22;10205;49.678;6.560;2023-07-09T08:17:34;29.00;45.50
20091;DHT22;10205;49.678;6.560;2023-07-09T08:20:01;29.10;45.30
20091;DHT22;10205;49.678;6.560;2023-07-09T08:22:31;29.20;45.40
20091;DHT22;10205;49.678;6.560;2023-07-09T08:25:00;29.30;45.40
20091;DHT22;10205;49.678;6.560;2023-07-09T08:27:27;29.40;45.50
20091;DHT22;10205;49.678;6.560;2023-07-09T08:29:54;29.50;46.20
20091;DHT22;10205;49.678;6.560;2023-07-09T08:32:23;29.60;45.60
20091;DHT22;10205;49.678;6.560;2023-07-09T08:34:50;29.70;46.30
20091;DHT22;10205;49.678;6.560;2023-07-09T08:37:17;29.80;45.20
20091;DHT22;10205;49.678;6.560;2023-07-09T08:39:45;29.80;45.10
20091;DHT22;10205;49.678;6.560;2023-07-09T08:42:16;30.00;44.80
20091;DHT22;10205;49.678;6.560;2023-07-09T08:45:09;30.10;45.10
20091;DHT22;10205;49.678;6.560;2023-07-09T08:47:51;30.20;45.00
20091;DHT22;10205;49.678;6.560;2023-07-09T08:50:29;30.30;44.70
20091;DHT22;10205;49.678;6.560;2023-07-09T08:53:04;30.40;44.40
20091;DHT22;10205;49.678;6.560;2023-07-09T08:55:36;30.50;44.50
20091;DHT22;10205;49.678;6.560;2023-07-09T08:58:14;30.60;44.30
20091;DHT22;10205;49.678;6.560;2023-07-09T09:00:51;30.80;44.20
20091;DHT22;10205;49.678;6.560;2023-07-09T09:03:28;30.90;44.10
20091;DHT22;10205;49.678;6.560;2023-07-09T09:06:01;31.00;43.90
20091;DHT22;10205;49.678;6.560;2023-07-09T09:08:38;31.10;44.50
20091;DHT22;10205;49.678;6.560;2023-07-09T09:11:17;31.20;43.50
20091;DHT22;10205;49.678;6.560;2023-07-09T09:13:53;31.40;43.50
20091;DHT22;10205;49.678;6.560;2023-07-09T09:16:26;31.50;43.60
20091;DHT22;10205;49.678;6.560;2023-07-09T09:18:58;31.60;43.40
20091;DHT22;10205;49.678;6.560;2023-07-09T09:21:31;31.70;43.20
20091;DHT22;10205;49.678;6.560;2023-07-09T09:24:13;31.80;43.20
20091;DHT22;10205;49.678;6.560;2023-07-09T09:26:43;31.90;43.00
20091;DHT22;10205;49.678;6.560;2023-07-09T09:29:14;32.10;42.60
20091;DHT22;10205;49.678;6.560;2023-07-09T09:31:45;32.20;42.20
20091;DHT22;10205;49.678;6.560;2023-07-09T09:34:19;32.40;41.90
20091;DHT22;10205;49.678;6.560;2023-07-09T09:36:49;32.50;42.00
20091;DHT22;10205;49.678;6.560;2023-07-09T09:39:17;32.60;41.60
20091;DHT22;10205;49.678;6.560;2023-07-09T09:41:45;32.70;41.50
20091;DHT22;10205;49.678;6.560;2023-07-09T09:44:20;32.80;41.30
20091;DHT22;10205;49.678;6.560;2023-07-09T09:46:52;33.00;40.50
20091;DHT22;10205;49.678;6.560;2023-07-09T09:49:19;33.10;40.70
20091;DHT22;10205;49.678;6.560;2023-07-09T09:51:47;33.20;40.50
20091;DHT22;10205;49.678;6.560;2023-07-09T09:54:18;33.40;40.40
20091;DHT22;10205;49.678;6.560;2023-07-09T09:56:49;33.50;39.70
20091;DHT22;10205;49.678;6.560;2023-07-09T09:59:20;33.60;39.70
20091;DHT22;10205;49.678;6.560;2023-07-09T10:01:58;33.70;38.60
20091;DHT22;10205;49.678;6.560;2023-07-09T10:04:27;33.80;38.90
20091;DHT22;10205;49.678;6.560;2023-07-09T10:06:56;33.90;39.00
20091;DHT22;10205;49.678;6.560;2023-07-09T10:09:41;34.10;39.20
20091;DHT22;10205;49.678;6.560;2023-07-09T10:12:18;34.20;38.40
20091;DHT22;10205;49.678;6.560;2023-07-09T10:15:01;34.40;38.50
20091;DHT22;10205;49.678;6.560;2023-07-09T10:17:48;34.50;38.20
20091;DHT22;10205;49.678;6.560;2023-07-09T10:20:27;34.60;37.90
20091;DHT22;10205;49.678;6.560;2023-07-09T10:23:09;34.70;37.90
20091;DHT22;10205;49.678;6.560;2023-07-09T10:25:50;34.80;37.60
20091;DHT22;10205;49.678;6.560;2023-07-09T10:28:38;35.00;36.80
20091;DHT22;10205;49.678;6.560;2023-07-09T10:31:29;35.10;37.30
20091;DHT22;10205;49.678;6.560;2023-07-09T10:37:23;35.30;37.20
20091;DHT22;10205;49.678;6.560;2023-07-09T10:40:10;35.50;37.10
20091;DHT22;10205;49.678;6.560;2023-07-09T10:42:45;35.60;36.90
20091;DHT22;10205;49.678;6.560;2023-07-09T10:45:22;35.70;36.50
20091;DHT22;10205;49.678;6.560;2023-07-09T10:47:59;35.80;36.20
20091;DHT22;10205;49.678;6.560;2023-07-09T10:50:32;35.90;36.10
20091;DHT22;10205;49.678;6.560;2023-07-09T10:53:09;36.00;36.30
20091;DHT22;10205;49.678;6.560;2023-07-09T10:55:46;36.10;36.00
20091;DHT22;10205;49.678;6.560;2023-07-09T10:58:29;36.30;35.80
20091;DHT22;10205;49.678;6.560;2023-07-09T11:01:04;36.40;35.40
20091;DHT22;10205;49.678;6.560;2023-07-09T11:03:40;36.50;35.90
20091;DHT22;10205;49.678;6.560;2023-07-09T11:06:19;36.50;34.80
20091;DHT22;10205;49.678;6.560;2023-07-09T11:09:01;36.70;34.20
20091;DHT22;10205;49.678;6.560;2023-07-09T11:11:37;36.80;34.80
20091;DHT22;10205;49.678;6.560;2023-07-09T11:14:13;36.90;35.20
20091;DHT22;10205;49.678;6.560;2023-07-09T11:16:48;37.00;35.20
20091;DHT22;10205;49.678;6.560;2023-07-09T11:19:19;37.20;34.60
20091;DHT22;10205;49.678;6.560;2023-07-09T11:21:58;37.20;34.50
20091;DHT22;10205;49.678;6.560;2023-07-09T11:24:36;37.30;34.30
20091;DHT22;10205;49.678;6.560;2023-07-09T11:27:21;37.50;33.40
20091;DHT22;10205;49.678;6.560;2023-07-09T11:29:58;37.60;33.90
20091;DHT22;10205;49.678;6.560;2023-07-09T11:32:28;37.70;34.00
20091;DHT22;10205;49.678;6.560;2023-07-09T11:35:08;37.80;34.00
20091;DHT22;10205;49.678;6.560;2023-07-09T11:37:45;37.90;33.90
20091;DHT22;10205;49.678;6.560;2023-07-09T11:40:14;38.00;33.60
20091;DHT22;10205;49.678;6.560;2023-07-09T11:42:50;38.10;33.40
20091;DHT22;10205;49.678;6.560;2023-07-09T11:45:22;38.20;32.80
20091;DHT22;10205;49.678;6.560;2023-07-09T11:47:57;38.30;32.30
20091;DHT22;10205;49.678;6.560;2023-07-09T11:50:34;38.40;32.50
20091;DHT22;10205;49.678;6.560;2023-07-09T11:53:22;38.50;32.50
20091;DHT22;10205;49.678;6.560;2023-07-09T11:55:57;38.60;30.50
20091;DHT22;10205;49.678;6.560;2023-07-09T11:58:25;38.60;31.40
20091;DHT22;10205;49.678;6.560;2023-07-09T12:00:54;38.70;31.40
20091;DHT22;10205;49.678;6.560;2023-07-09T12:03:26;38.80;31.90
20091;DHT22;10205;49.678;6.560;2023-07-09T12:06:02;38.90;30.80
20091;DHT22;10205;49.678;6.560;2023-07-09T12:08:35;39.00;31.20
20091;DHT22;10205;49.678;6.560;2023-07-09T12:11:04;39.10;31.30
20091;DHT22;10205;49.678;6.560;2023-07-09T12:13:36;39.10;30.80
20091;DHT22;10205;49.678;6.560;2023-07-09T12:16:16;39.20;31.00
20091;DHT22;10205;49.678;6.560;2023-07-09T12:18:47;39.30;30.80
20091;DHT22;10205;49.678;6.560;2023-07-09T12:21:15;39.40;30.90
20091;DHT22;10205;49.678;6.560;2023-07-09T12:23:43;39.50;31.20
20091;DHT22;10205;49.678;6.560;2023-07-09T12:26:13;39.50;30.10
20091;DHT22;10205;49.678;6.560;2023-07-09T12:28:42;39.50;30.30
20091;DHT22;10205;49.678;6.560;2023-07-09T12:31:14;39.60;30.30
20091;DHT22;10205;49.678;6.560;2023-07-09T12:33:48;39.60;30.50
20091;DHT22;10205;49.678;6.560;2023-07-09T12:36:18;39.80;30.50
20091;DHT22;10205;49.678;6.560;2023-07-09T12:38:49;39.90;29.30
20091;DHT22;10205;49.678;6.560;2023-07-09T12:41:20;39.90;29.90
20091;DHT22;10205;49.678;6.560;2023-07-09T12:43:52;40.00;29.70
20091;DHT22;10205;49.678;6.560;2023-07-09T12:46:21;40.00;29.60
20091;DHT22;10205;49.678;6.560;2023-07-09T12:48:49;40.10;30.00
20091;DHT22;10205;49.678;6.560;2023-07-09T12:51:21;40.20;30.00
20091;DHT22;10205;49.678;6.560;2023-07-09T12:54:00;40.30;29.30
20091;DHT22;10205;49.678;6.560;2023-07-09T12:56:30;40.30;29.30
20091;DHT22;10205;49.678;6.560;2023-07-09T12:59:02;40.40;29.50
20091;DHT22;10205;49.678;6.560;2023-07-09T13:01:39;40.40;29.90
20091;DHT22;10205;49.678;6.560;2023-07-09T13:04:10;40.50;29.80
20091;DHT22;10205;49.678;6.560;2023-07-09T13:06:42;40.50;29.40
20091;DHT22;10205;49.678;6.560;2023-07-09T13:09:18;40.50;29.60
20091;DHT22;10205;49.678;6.560;2023-07-09T13:11:48;40.60;29.60
20091;DHT22;10205;49.678;6.560;2023-07-09T13:14:19;40.70;29.40
20091;DHT22;10205;49.678;6.560;2023-07-09T13:16:48;40.70;29.30
20091;DHT22;10205;49.678;6.560;2023-07-09T13:19:16;40.70;28.80
20091;DHT22;10205;49.678;6.560;2023-07-09T13:21:45;40.80;28.10
20091;DHT22;10205;49.678;6.560;2023-07-09T13:24:16;40.80;28.30
20091;DHT22;10205;49.678;6.560;2023-07-09T13:26:47;40.80;28.70
20091;DHT22;10205;49.678;6.560;2023-07-09T13:29:15;40.80;28.60
20091;DHT22;10205;49.678;6.560;2023-07-09T13:31:44;40.80;28.50
20091;DHT22;10205;49.678;6.560;2023-07-09T13:34:20;40.80;28.70
20091;DHT22;10205;49.678;6.560;2023-07-09T13:36:51;40.80;28.30
20091;DHT22;10205;49.678;6.560;2023-07-09T13:39:22;40.80;28.60
20091;DHT22;10205;49.678;6.560;2023-07-09T13:41:51;40.70;28.80
20091;DHT22;10205;49.678;6.560;2023-07-09T13:44:22;40.70;29.00
20091;DHT22;10205;49.678;6.560;2023-07-09T13:46:51;40.70;29.20
20091;DHT22;10205;49.678;6.560;2023-07-09T13:49:20;40.50;29.40
20091;DHT22;10205;49.678;6.560;2023-07-09T13:51:55;40.50;29.60
20091;DHT22;10205;49.678;6.560;2023-07-09T13:54:26;40.40;29.80
20091;DHT22;10205;49.678;6.560;2023-07-09T13:56:57;40.30;30.30
20091;DHT22;10205;49.678;6.560;2023-07-09T13:59:25;40.20;30.70
20091;DHT22;10205;49.678;6.560;2023-07-09T14:01:55;40.10;30.80
20091;DHT22;10205;49.678;6.560;2023-07-09T14:04:25;40.00;31.40
20091;DHT22;10205;49.678;6.560;2023-07-09T14:06:55;39.80;31.50
20091;DHT22;10205;49.678;6.560;2023-07-09T14:09:22;39.70;32.10
20091;DHT22;10205;49.678;6.560;2023-07-09T14:11:51;39.60;32.10
20091;DHT22;10205;49.678;6.560;2023-07-09T14:14:23;39.50;32.40
20091;DHT22;10205;49.678;6.560;2023-07-09T14:16:52;39.30;32.60
20091;DHT22;10205;49.678;6.560;2023-07-09T14:19:21;39.10;32.90
20091;DHT22;10205;49.678;6.560;2023-07-09T14:21:51;39.00;33.60
20091;DHT22;10205;49.678;6.560;2023-07-09T14:24:23;38.90;33.50
20091;DHT22;10205;49.678;6.560;2023-07-09T14:26:54;38.80;33.60
20091;DHT22;10205;49.678;6.560;2023-07-09T14:29:23;38.70;34.30
20091;DHT22;10205;49.678;6.560;2023-07-09T14:31:52;38.60;33.80
20091;DHT22;10205;49.678;6.560;2023-07-09T14:34:22;38.60;33.90
20091;DHT22;10205;49.678;6.560;2023-07-09T14:36:53;38.50;34.00
20091;DHT22;10205;49.678;6.560;2023-07-09T14:39:25;38.50;34.10
20091;DHT22;10205;49.678;6.560;2023-07-09T14:41:53;38.50;34.20
20091;DHT22;10205;49.678;6.560;2023-07-09T14:44:24;38.40;34.30
20091;DHT22;10205;49.678;6.560;2023-07-09T14:46:55;38.40;34.40
20091;DHT22;10205;49.678;6.560;2023-07-09T14:49:24;38.30;35.00
20091;DHT22;10205;49.678;6.560;2023-07-09T14:51:52;38.20;34.40
20091;DHT22;10205;49.678;6.560;2023-07-09T14:54:22;38.10;34.50
20091;DHT22;10205;49.678;6.560;2023-07-09T14:56:53;38.10;34.50
20091;DHT22;10205;49.678;6.560;2023-07-09T14:59:22;38.00;34.60
20091;DHT22;10205;49.678;6.560;2023-07-09T15:01:50;38.00;34.70
20091;DHT22;10205;49.678;6.560;2023-07-09T15:04:30;37.90;34.70
20091;DHT22;10205;49.678;6.560;2023-07-09T15:06:59;37.80;35.00
20091;DHT22;10205;49.678;6.560;2023-07-09T15:09:28;37.70;34.80
20091;DHT22;10205;49.678;6.560;2023-07-09T15:11:57;37.70;35.10
20091;DHT22;10205;49.678;6.560;2023-07-09T15:14:27;37.70;35.30
20091;DHT22;10205;49.678;6.560;2023-07-09T15:16:55;37.60;35.20
20091;DHT22;10205;49.678;6.560;2023-07-09T15:19:22;37.50;35.30
20091;DHT22;10205;49.678;6.560;2023-07-09T15:21:50;37.40;35.30
20091;DHT22;10205;49.678;6.560;2023-07-09T15:24:21;37.40;35.40
20091;DHT22;10205;49.678;6.560;2023-07-09T15:26:53;37.40;35.40
20091;DHT22;10205;49.678;6.560;2023-07-09T15:29:22;37.30;35.40
20091;DHT22;10205;49.678;6.560;2023-07-09T15:31:50;37.20;35.50
20091;DHT22;10205;49.678;6.560;2023-07-09T15:34:17;37.20;35.60
20091;DHT22;10205;49.678;6.560;2023-07-09T15:36:47;37.10;35.60
20091;DHT22;10205;49.678;6.560;2023-07-09T15:39:15;37.00;35.70
20091;DHT22;10205;49.678;6.560;2023-07-09T15:41:42;37.00;35.70
20091;DHT22;10205;49.678;6.560;2023-07-09T15:44:12;36.90;35.70
20091;DHT22;10205;49.678;6.560;2023-07-09T15:46:47;36.80;35.80
20091;DHT22;10205;49.678;6.560;2023-07-09T15:49:20;36.80;36.00
20091;DHT22;10205;49.678;6.560;2023-07-09T15:51:47;36.70;35.90
20091;DHT22;10205;49.678;6.560;2023-07-09T15:54:16;36.70;36.00
20091;DHT22;10205;49.678;6.560;2023-07-09T15:56:45;36.60;36.20